Time;durP1;ratioP1;P1;durP2;ratioP2;P2;SDS_P1;SDS_P2;PMS_P1;PMS_P2;Temp;Humidity;BMP_temperature;BMP_pressure;BME280_temperature;BME280_humidity;BME280_pressure;Samples;Min_cycle;Max_cycle;Signal;HPM_P1;HPM_P2
2021/06/01 00:00:36;;;;;;;4.63;3.97;;;;;;;14.02;97.29;101442.66;5027615;28;20674;-76
2021/06/01 00:03:05;;;;;;;4.83;3.87;;;;;;;13.97;98.36;101442.63;4977975;28;20217;-76
2021/06/01 00:05:33;;;;;;;4.68;3.78;;;;;;;13.84;99.90;101444.03;5010627;28;20267;-77
2021/06/01 00:07:58;;;;;;;4.20;3.80;;;;;;;13.62;100.00;101439.91;5006147;28;20208;-77
2021/06/01 00:10:24;;;;;;;4.00;3.60;;;;;;;13.45;100.00;101439.38;5030597;28;20196;-76
2021/06/01 00:12:52;;;;;;;3.97;3.57;;;;;;;13.49;100.00;101440.44;5046364;28;20199;-76
2021/06/01 00:15:18;;;;;;;5.40;4.53;;;;;;;13.44;100.00;101442.34;5046444;28;20688;-76
2021/06/01 00:17:44;;;;;;;5.57;4.07;;;;;;;13.53;100.00;101433.38;4997967;28;20200;-76
2021/06/01 00:20:12;;;;;;;4.57;4.17;;;;;;;13.54;100.00;101432.28;5028020;28;20192;-76
2021/06/01 00:22:40;;;;;;;4.65;3.97;;;;;;;13.55;100.00;101438.53;5001342;28;20204;-75
2021/06/01 00:25:06;;;;;;;5.67;4.40;;;;;;;13.67;100.00;101431.72;4977618;28;20579;-76
2021/06/01 00:27:31;;;;;;;4.47;3.97;;;;;;;13.61;100.00;101429.28;5010278;28;20201;-76
2021/06/01 00:29:59;;;;;;;4.80;4.40;;;;;;;13.56;100.00;101424.63;4994637;28;20865;-75
2021/06/01 00:32:25;;;;;;;5.50;4.57;;;;;;;13.54;100.00;101437.72;5020655;28;20223;-75
2021/06/01 00:34:53;;;;;;;4.57;3.93;;;;;;;13.55;100.00;101433.94;5030426;28;20184;-76
2021/06/01 00:37:19;;;;;;;4.43;3.93;;;;;;;13.48;100.00;101435.28;4997070;28;20228;-75
2021/06/01 00:39:49;;;;;;;4.80;4.30;;;;;;;13.38;100.00;101437.19;5030121;28;20188;-76
2021/06/01 00:42:14;;;;;;;5.30;4.03;;;;;;;13.39;100.00;101433.34;5028858;28;20224;-77
2021/06/01 00:44:43;;;;;;;5.07;4.60;;;;;;;13.40;100.00;101424.06;5013916;28;20526;-76
2021/06/01 00:47:10;;;;;;;4.87;4.37;;;;;;;13.36;100.00;101428.44;4996850;28;20307;-76
2021/06/01 00:49:36;;;;;;;4.93;4.43;;;;;;;13.22;100.00;101432.78;5030303;28;20194;-77
2021/06/01 00:52:02;;;;;;;5.20;4.70;;;;;;;13.23;100.00;101431.72;5012115;28;20216;-75
2021/06/01 00:54:34;;;;;;;4.40;4.00;;;;;;;13.22;100.00;101428.16;5014433;28;21000;-76
2021/06/01 00:57:00;;;;;;;5.80;4.50;;;;;;;13.20;100.00;101429.50;5012483;28;20255;-76
2021/06/01 00:59:30;;;;;;;5.47;4.83;;;;;;;13.09;100.00;101433.31;5029909;28;20268;-76
2021/06/01 01:02:01;;;;;;;4.70;4.30;;;;;;;12.97;100.00;101440.94;5029308;28;20235;-75
2021/06/01 01:04:27;;;;;;;5.83;4.30;;;;;;;12.92;100.00;101430.00;5013675;28;20907;-76
2021/06/01 01:07:13;;;;;;;5.33;4.70;;;;;;;12.71;100.00;101420.09;5029092;28;20232;-76
2021/06/01 01:09:41;;;;;;;4.83;4.43;;;;;;;12.65;100.00;101424.97;5027511;28;20207;-76
2021/06/01 01:12:15;;;;;;;5.10;4.60;;;;;;;12.55;100.00;101425.75;5012569;28;20303;-76
2021/06/01 01:14:52;;;;;;;4.77;4.37;;;;;;;12.59;100.00;101426.03;5016658;28;20210;-75
2021/06/01 01:17:20;;;;;;;5.20;4.40;;;;;;;12.56;100.00;101423.81;5012912;28;20228;-76
2021/06/01 01:20:07;;;;;;;4.70;4.30;;;;;;;12.58;100.00;101424.38;5014331;28;20186;-76
2021/06/01 01:22:37;;;;;;;5.63;4.27;;;;;;;12.57;100.00;101423.56;4992081;28;20376;-76
2021/06/01 01:25:28;;;;;;;5.70;4.23;;;;;;;12.68;100.00;101429.88;4977078;28;20236;-76
2021/06/01 01:28:07;;;;;;;5.13;4.57;;;;;;;12.73;100.00;101434.28;4996072;28;20205;-76
2021/06/01 01:30:46;;;;;;;5.33;4.40;;;;;;;12.67;100.00;101426.31;4994142;28;20319;-75
2021/06/01 01:33:26;;;;;;;5.10;4.60;;;;;;;12.60;100.00;101430.38;4992606;28;20586;-75
2021/06/01 01:36:02;;;;;;;4.73;4.20;;;;;;;12.66;100.00;101427.44;4977435;28;20220;-76
2021/06/01 01:38:29;;;;;;;5.50;4.87;;;;;;;12.70;100.00;101434.78;4993991;28;20818;-76
2021/06/01 01:40:59;;;;;;;5.40;4.57;;;;;;;12.61;100.00;101423.84;4992946;28;20741;-76
2021/06/01 01:43:31;;;;;;;5.40;4.90;;;;;;;12.49;100.00;101428.69;4960188;28;20795;-75
2021/06/01 01:46:37;;;;;;;5.20;4.70;;;;;;;12.46;100.00;101435.50;4993459;28;20316;-76
2021/06/01 01:49:00;;;;;;;5.60;5.10;;;;;;;12.42;100.00;101431.69;4980902;28;20583;-76
2021/06/01 01:51:32;;;;;;;6.20;4.87;;;;;;;12.36;100.00;101421.00;4979320;28;20224;-76
2021/06/01 01:54:00;;;;;;;5.97;4.77;;;;;;;12.23;100.00;101423.41;4992945;28;20624;-75
2021/06/01 01:56:34;;;;;;;5.17;4.43;;;;;;;12.15;100.00;101424.72;4960290;28;20238;-76
2021/06/01 01:59:00;;;;;;;5.57;5.00;;;;;;;12.17;100.00;101425.28;4980788;28;20193;-76
2021/06/01 02:01:34;;;;;;;6.00;4.70;;;;;;;12.09;100.00;101420.34;4979932;28;20221;-76
2021/06/01 02:04:02;;;;;;;6.93;4.50;;;;;;;12.07;100.00;101418.97;4981989;28;20283;-76
2021/06/01 02:06:28;;;;;;;5.20;4.47;;;;;;;11.97;100.00;101427.88;4980392;28;20316;-76
2021/06/01 02:08:54;;;;;;;6.33;4.93;;;;;;;11.91;100.00;101412.59;4980543;28;20830;-76
2021/06/01 02:11:20;;;;;;;5.13;4.63;;;;;;;11.78;100.00;101412.22;4979785;28;20224;-76
2021/06/01 02:13:58;;;;;;;8.83;5.13;;;;;;;11.70;100.00;101412.72;4996092;28;20185;-76
2021/06/01 02:16:24;;;;;;;4.93;4.53;;;;;;;11.54;100.00;101426.47;4981826;28;20267;-76
2021/06/01 02:18:52;;;;;;;5.70;4.93;;;;;;;11.45;100.00;101417.13;4974545;28;20194;-75
2021/06/01 02:21:35;;;;;;;5.73;5.00;;;;;;;11.32;100.00;101416.72;5003256;28;20619;-76
2021/06/01 02:24:07;;;;;;;5.70;5.10;;;;;;;11.49;100.00;101422.88;5014766;28;20188;-76
2021/06/01 02:26:44;;;;;;;5.73;5.13;;;;;;;11.53;100.00;101419.38;5005571;28;20243;-76
2021/06/01 02:29:17;;;;;;;5.87;5.27;;;;;;;11.51;100.00;101426.97;5024371;28;20204;-76
2021/06/01 02:31:42;;;;;;;6.23;4.97;;;;;;;11.50;100.00;101422.63;5020901;28;20224;-75
2021/06/01 02:34:08;;;;;;;6.97;5.03;;;;;;;11.50;100.00;101419.91;5012720;28;20211;-76
2021/06/01 02:36:35;;;;;;;6.80;5.10;;;;;;;11.54;100.00;101426.47;5012016;28;20236;-76
2021/06/01 02:39:00;;;;;;;5.73;5.00;;;;;;;11.52;100.00;101420.47;4980129;28;20284;-76
2021/06/01 02:41:26;;;;;;;5.87;5.00;;;;;;;11.46;100.00;101420.66;4996027;28;20236;-76
2021/06/01 02:43:54;;;;;;;5.87;5.10;;;;;;;11.42;100.00;101414.88;4980014;28;20197;-76
2021/06/01 02:46:24;;;;;;;6.97;5.20;;;;;;;11.35;100.00;101411.56;5002731;28;20742;-76
2021/06/01 02:48:51;;;;;;;5.60;5.10;;;;;;;11.30;100.00;101408.81;4996305;28;20177;-75
2021/06/01 02:51:18;;;;;;;6.07;4.90;;;;;;;11.37;100.00;101404.00;4995477;28;20239;-76
2021/06/01 02:53:48;;;;;;;7.23;5.40;;;;;;;11.31;100.00;101410.44;4995451;28;20181;-76
2021/06/01 02:56:16;;;;;;;5.90;5.27;;;;;;;11.24;100.00;101409.00;4985258;28;20228;-74
2021/06/01 02:58:42;;;;;;;6.17;5.23;;;;;;;11.24;100.00;101415.25;5012545;28;20557;-76
2021/06/01 03:01:11;;;;;;;6.03;5.37;;;;;;;11.13;100.00;101406.47;4995379;28;20654;-75
2021/06/01 03:03:51;;;;;;;6.30;5.23;;;;;;;11.08;100.00;101411.84;4978668;28;20216;-76
2021/06/01 03:06:18;;;;;;;5.93;5.17;;;;;;;11.06;100.00;101412.13;4979415;28;20251;-75
2021/06/01 03:08:43;;;;;;;6.00;5.20;;;;;;;11.02;100.00;101400.09;4996239;28;20184;-76
2021/06/01 03:11:09;;;;;;;5.70;5.13;;;;;;;10.99;100.00;101406.06;5011079;28;20217;-75
2021/06/01 03:13:37;;;;;;;5.47;4.97;;;;;;;10.81;100.00;101406.41;4987470;28;20213;-76
2021/06/01 03:16:05;;;;;;;7.20;5.70;;;;;;;10.72;100.00;101409.84;4997787;28;20355;-74
2021/06/01 03:18:34;;;;;;;6.00;5.13;;;;;;;10.74;100.00;101401.44;4998879;28;20295;-75
2021/06/01 03:20:59;;;;;;;6.43;5.40;;;;;;;10.68;100.00;101414.16;5011111;28;20324;-75
2021/06/01 03:23:25;;;;;;;6.17;5.57;;;;;;;10.67;100.00;101406.25;4978656;28;20741;-75
2021/06/01 03:25:51;;;;;;;8.23;6.07;;;;;;;10.58;100.00;101403.13;4978903;28;20585;-75
2021/06/01 03:28:19;;;;;;;6.37;5.67;;;;;;;10.48;100.00;101408.47;4979261;28;20200;-75
2021/06/01 03:30:50;;;;;;;6.43;5.53;;;;;;;10.56;100.00;101399.88;4995310;28;20228;-75
2021/06/01 03:33:17;;;;;;;7.43;5.30;;;;;;;10.63;100.00;101399.69;4990077;28;20273;-76
2021/06/01 03:35:45;;;;;;;6.90;5.50;;;;;;;10.75;100.00;101399.28;5006715;28;20216;-76
2021/06/01 03:38:11;;;;;;;6.60;5.77;;;;;;;10.89;100.00;101394.25;4980725;28;20236;-75
2021/06/01 03:40:39;;;;;;;6.63;5.60;;;;;;;10.98;100.00;101395.44;4990630;28;20224;-76
2021/06/01 03:43:05;;;;;;;5.87;4.97;;;;;;;11.08;100.00;101400.97;4998070;28;20242;-76
2021/06/01 03:45:36;;;;;;;8.10;5.77;;;;;;;11.27;100.00;101403.88;5004902;28;20225;-77
2021/06/01 03:48:02;;;;;;;5.80;5.20;;;;;;;11.31;100.00;101410.44;5008837;28;20239;-76
2021/06/01 03:50:33;;;;;;;6.83;5.43;;;;;;;11.26;100.00;101402.25;5007318;28;20271;-76
2021/06/01 03:52:59;;;;;;;5.83;5.27;;;;;;;11.36;100.00;101396.91;4996179;28;20916;-76
2021/06/01 03:55:30;;;;;;;9.23;5.70;;;;;;;11.44;100.00;101410.03;5029441;28;20336;-76
2021/06/01 03:57:55;;;;;;;6.10;5.50;;;;;;;11.52;100.00;101401.44;5014721;28;20660;-77
2021/06/01 04:00:23;;;;;;;6.00;5.27;;;;;;;11.40;100.00;101395.28;5009073;28;20180;-76
2021/06/01 04:02:53;;;;;;;6.40;5.77;;;;;;;11.38;100.00;101400.16;4987263;28;20209;-75
2021/06/01 04:05:19;;;;;;;5.83;4.73;;;;;;;11.18;100.00;101402.69;5012894;28;20293;-76
2021/06/01 04:07:45;;;;;;;6.07;5.13;;;;;;;11.14;100.00;101398.88;5045975;28;20200;-76
2021/06/01 04:10:11;;;;;;;6.00;5.20;;;;;;;11.05;100.00;101396.06;4996137;28;20600;-75
2021/06/01 04:12:39;;;;;;;5.70;5.20;;;;;;;10.97;100.00;101396.50;5011344;28;20595;-76
2021/06/01 04:15:06;;;;;;;5.90;5.20;;;;;;;10.99;100.00;101394.34;5019884;28;20192;-76
2021/06/01 04:17:31;;;;;;;5.63;5.03;;;;;;;11.21;100.00;101398.66;4993866;28;20598;-76
2021/06/01 04:19:59;;;;;;;5.90;5.07;;;;;;;11.30;100.00;101392.50;5018420;28;20193;-77
2021/06/01 04:22:27;;;;;;;6.53;4.77;;;;;;;11.40;100.00;101397.19;4998194;28;20247;-77
2021/06/01 04:24:55;;;;;;;5.23;4.73;;;;;;;11.52;100.00;101386.97;5014602;28;20199;-77
2021/06/01 04:27:21;;;;;;;7.27;5.13;;;;;;;11.66;100.00;101380.84;5007606;28;20274;-76
2021/06/01 04:29:46;;;;;;;6.93;4.80;;;;;;;11.78;100.00;101384.19;5029652;28;20192;-76
2021/06/01 04:32:12;;;;;;;5.70;5.10;;;;;;;11.86;100.00;101380.97;5020977;28;20223;-76
2021/06/01 04:34:43;;;;;;;5.63;5.03;;;;;;;12.08;100.00;101387.91;4970196;28;20573;-76
2021/06/01 04:37:11;;;;;;;6.20;5.53;;;;;;;12.10;100.00;101393.91;4977416;28;20232;-76
2021/06/01 04:39:36;;;;;;;5.50;4.97;;;;;;;12.04;100.00;101395.78;4994093;28;20195;-76
2021/06/01 04:42:05;;;;;;;7.50;5.20;;;;;;;11.99;100.00;101382.13;5008377;28;20691;-75
2021/06/01 04:44:30;;;;;;;7.80;5.40;;;;;;;11.94;100.00;101386.72;4993692;28;20192;-78
2021/06/01 04:46:58;;;;;;;7.07;5.27;;;;;;;11.97;100.00;101395.19;4993450;28;20232;-76
2021/06/01 04:49:24;;;;;;;7.23;5.50;;;;;;;12.07;100.00;101398.00;5010152;28;20181;-76
2021/06/01 04:51:52;;;;;;;7.23;5.67;;;;;;;12.22;100.00;101387.19;4992908;28;20225;-76
2021/06/01 04:54:17;;;;;;;7.23;5.30;;;;;;;12.46;100.00;101396.53;5010136;28;20188;-77
2021/06/01 04:56:45;;;;;;;7.93;5.57;;;;;;;12.69;100.00;101394.16;4977403;28;20225;-76
2021/06/01 04:59:11;;;;;;;6.97;5.57;;;;;;;12.89;100.00;101384.19;4994538;28;20182;-74
2021/06/01 05:01:38;;;;;;;6.63;5.93;;;;;;;13.02;100.00;101389.13;4975474;28;20250;-75
2021/06/01 05:04:06;;;;;;;6.00;5.40;;;;;;;13.09;100.00;101387.78;4998500;28;20190;-75
2021/06/01 05:06:35;;;;;;;6.80;6.10;;;;;;;13.29;100.00;101389.69;4982118;28;20367;-75
2021/06/01 05:09:04;;;;;;;6.17;5.57;;;;;;;13.55;100.00;101389.41;4966303;28;20189;-74
2021/06/01 05:11:34;;;;;;;6.63;5.90;;;;;;;13.78;100.00;101377.94;4995707;28;20229;-75
2021/06/01 05:13:59;;;;;;;6.97;5.67;;;;;;;14.03;100.00;101384.22;5000721;28;20186;-76
2021/06/01 05:16:25;;;;;;;6.30;5.67;;;;;;;14.04;100.00;101383.09;4996471;28;20229;-77
2021/06/01 05:18:52;;;;;;;7.60;5.57;;;;;;;14.21;100.00;101391.78;4981070;28;20190;-77
2021/06/01 05:21:20;;;;;;;6.70;6.00;;;;;;;14.30;100.00;101382.75;4976645;28;20229;-75
2021/06/01 05:23:45;;;;;;;6.93;5.97;;;;;;;14.35;100.00;101386.28;4988528;28;20205;-74
2021/06/01 05:26:13;;;;;;;9.13;7.93;;;;;;;14.42;100.00;101381.31;5009210;28;20283;-77
2021/06/01 05:28:39;;;;;;;10.23;8.47;;;;;;;14.57;100.00;101380.44;4993955;28;20181;-76
2021/06/01 05:33:33;;;;;;;6.87;6.13;;;;;;;14.78;100.00;101371.84;4992379;28;20611;-76
2021/06/01 05:35:59;;;;;;;7.27;6.30;;;;;;;14.92;100.00;101375.59;4976866;28;20773;-76
2021/06/01 05:38:26;;;;;;;7.28;6.57;;;;;;;15.02;100.00;101374.44;5009865;28;20292;-76
2021/06/01 05:40:52;;;;;;;6.75;6.00;;;;;;;15.05;100.00;101371.16;4992164;28;20702;-76
2021/06/01 05:43:19;;;;;;;7.95;6.35;;;;;;;15.13;100.00;101373.31;4978113;28;20230;-76
2021/06/01 05:45:49;;;;;;;7.77;6.20;;;;;;;15.25;99.85;101372.94;4979133;28;20235;-76
2021/06/01 05:48:17;;;;;;;7.53;6.13;;;;;;;15.35;99.99;101378.31;5010430;28;20197;-76
2021/06/01 05:50:46;;;;;;;6.68;5.97;;;;;;;15.51;99.56;101383.41;5009991;28;20237;-76
2021/06/01 05:53:11;;;;;;;7.47;6.20;;;;;;;15.70;99.33;101378.88;4992166;28;20283;-76
2021/06/01 05:55:37;;;;;;;6.80;5.80;;;;;;;15.98;98.15;101376.09;5008839;28;20797;-76
2021/06/01 05:58:05;;;;;;;6.70;5.68;;;;;;;16.22;97.05;101375.03;4977145;28;20253;-76
2021/06/01 06:00:31;;;;;;;6.18;5.43;;;;;;;16.57;95.49;101379.00;5009251;28;20252;-76
2021/06/01 06:02:58;;;;;;;6.78;5.68;;;;;;;16.96;92.79;101380.38;4993155;28;20342;-76
2021/06/01 06:05:29;;;;;;;6.88;5.60;;;;;;;17.14;90.62;101382.31;4960443;28;20311;-76
2021/06/01 06:07:55;;;;;;;8.02;5.93;;;;;;;17.32;89.53;101381.50;5010206;28;20234;-77
2021/06/01 06:10:23;;;;;;;6.47;5.43;;;;;;;17.47;88.28;101375.75;4993376;28;20207;-76
2021/06/01 06:12:51;;;;;;;7.95;5.80;;;;;;;17.64;87.05;101381.53;5008749;28;20177;-76
2021/06/01 06:15:21;;;;;;;6.88;5.88;;;;;;;17.73;87.30;101369.56;5008564;28;20172;-76
2021/06/01 06:18:06;;;;;;;8.55;5.95;;;;;;;17.88;86.92;101367.34;4961270;28;20220;-76
2021/06/01 06:20:34;;;;;;;8.13;6.15;;;;;;;18.00;85.80;101375.09;4994362;28;20694;-76
2021/06/01 06:23:00;;;;;;;8.73;6.45;;;;;;;18.08;84.75;101360.66;5008833;28;20209;-77
2021/06/01 06:25:26;;;;;;;6.80;6.18;;;;;;;18.18;84.53;101367.59;4982336;28;20274;-77
2021/06/01 06:27:55;;;;;;;7.35;5.93;;;;;;;18.44;83.82;101363.22;4981142;28;20204;-77
2021/06/01 06:30:21;;;;;;;7.03;5.72;;;;;;;18.71;82.48;101366.75;5028754;28;20188;-77
2021/06/01 06:32:47;;;;;;;9.45;6.35;;;;;;;18.91;80.74;101367.13;4995321;28;20185;-76
2021/06/01 06:35:12;;;;;;;6.65;5.97;;;;;;;19.27;79.56;101364.38;5028133;28;20646;-76
2021/06/01 06:37:38;;;;;;;7.20;5.97;;;;;;;19.54;77.20;101367.84;5012595;28;20697;-76
2021/06/01 06:40:04;;;;;;;8.52;5.75;;;;;;;19.61;75.07;101370.97;4996089;28;20180;-76
2021/06/01 06:42:32;;;;;;;6.13;5.50;;;;;;;19.96;74.66;101368.94;5007747;28;20232;-76
2021/06/01 06:44:58;;;;;;;8.68;5.80;;;;;;;19.84;74.45;101365.97;4994328;28;20208;-76
2021/06/01 06:47:55;;;;;;;7.03;5.40;;;;;;;20.35;72.64;101360.72;4995700;28;20228;-76
2021/06/01 06:50:22;;;;;;;5.75;5.15;;;;;;;20.66;72.12;101357.59;5002539;28;20216;-77
2021/06/01 06:52:47;;;;;;;7.93;4.80;;;;;;;20.92;70.95;101362.03;5015699;28;20266;-76
2021/06/01 06:55:13;;;;;;;5.45;4.95;;;;;;;21.32;69.21;101363.50;5001638;28;20192;-77
2021/06/01 06:57:39;;;;;;;6.22;5.15;;;;;;;21.29;69.59;101362.19;5039483;28;20200;-77
2021/06/01 07:00:09;;;;;;;6.65;5.05;;;;;;;21.12;69.67;101349.53;5005007;28;20311;-76
2021/06/01 07:02:39;;;;;;;5.80;4.72;;;;;;;20.92;70.33;101350.97;5036692;28;20295;-77
2021/06/01 07:05:09;;;;;;;5.20;4.70;;;;;;;21.08;68.20;101351.28;5018596;28;20211;-77
2021/06/01 07:07:35;;;;;;;6.50;4.40;;;;;;;21.16;66.63;101356.03;5000644;28;20203;-77
2021/06/01 07:10:03;;;;;;;5.65;4.50;;;;;;;21.66;65.43;101351.28;5016373;28;20169;-76
2021/06/01 07:12:32;;;;;;;5.18;4.43;;;;;;;21.15;65.51;101355.19;5027876;28;20568;-77
2021/06/01 07:14:57;;;;;;;7.30;4.45;;;;;;;21.21;64.12;101355.84;5016413;28;20181;-77
2021/06/01 07:17:28;;;;;;;5.20;3.90;;;;;;;21.75;59.53;101348.50;5032078;28;20259;-77
2021/06/01 07:19:56;;;;;;;6.22;3.70;;;;;;;22.10;56.17;101356.38;5032958;28;20169;-75
2021/06/01 07:22:26;;;;;;;4.93;3.92;;;;;;;22.08;55.53;101353.94;4995807;28;20256;-76
2021/06/01 07:24:51;;;;;;;4.50;3.85;;;;;;;21.22;54.80;101356.34;4997457;28;20247;-77
2021/06/01 07:27:17;;;;;;;5.25;4.00;;;;;;;21.62;55.65;101366.09;4980178;28;20709;-76
2021/06/01 07:29:45;;;;;;;4.57;3.60;;;;;;;21.82;55.43;101360.69;5013395;28;20177;-77
2021/06/01 07:32:11;;;;;;;4.50;3.78;;;;;;;22.32;54.50;101356.97;4978747;28;20223;-77
2021/06/01 07:34:37;;;;;;;4.30;3.25;;;;;;;22.59;52.99;101350.97;4996703;28;20181;-77
2021/06/01 07:37:05;;;;;;;4.90;3.92;;;;;;;22.29;50.19;101354.88;4996344;28;20233;-77
2021/06/01 07:39:33;;;;;;;4.00;2.95;;;;;;;22.36;49.29;101349.59;4996207;28;20227;-77
2021/06/01 07:41:58;;;;;;;3.60;2.95;;;;;;;22.28;49.78;101344.94;4994741;28;20505;-77
2021/06/01 07:44:25;;;;;;;4.13;3.00;;;;;;;22.52;48.84;101339.59;4996601;28;20552;-77
2021/06/01 07:46:50;;;;;;;4.47;3.10;;;;;;;23.09;48.54;101347.88;4979501;28;20805;-76
2021/06/01 07:49:18;;;;;;;4.63;2.90;;;;;;;23.42;47.32;101351.50;4996922;28;20207;-76
2021/06/01 07:51:44;;;;;;;3.63;2.63;;;;;;;23.62;45.17;101346.75;5011739;28;20229;-76
2021/06/01 07:54:09;;;;;;;4.93;2.65;;;;;;;23.94;43.65;101348.72;4996117;28;20239;-77
2021/06/01 07:56:35;;;;;;;5.60;2.70;;;;;;;23.91;44.74;101348.59;4979328;28;20224;-77
2021/06/01 07:59:05;;;;;;;3.00;2.60;;;;;;;22.77;45.49;101345.78;4980789;28;20188;-77
2021/06/01 08:01:31;;;;;;;2.95;2.72;;;;;;;22.96;44.61;101350.91;4963081;28;20257;-77
2021/06/01 08:03:59;;;;;;;3.33;2.70;;;;;;;23.43;44.61;101347.59;5011555;28;20209;-77
2021/06/01 08:06:30;;;;;;;5.22;3.20;;;;;;;23.13;46.27;101337.75;4995004;28;20240;-77
2021/06/01 08:08:58;;;;;;;4.20;3.20;;;;;;;;;;4996456;28;20870;-77
2021/06/01 08:11:24;;;;;;;3.17;2.88;;;;;;;22.74;45.91;101336.53;4996802;28;20271;-77
2021/06/01 08:13:51;;;;;;;4.07;3.25;;;;;;;22.45;46.64;101347.63;4974624;28;20554;-77
2021/06/01 08:16:19;;;;;;;3.33;2.97;;;;;;;22.60;45.94;101333.19;5007357;28;20308;-77
2021/06/01 08:18:59;;;;;;;4.07;3.10;;;;;;;22.95;45.71;101333.47;4994703;28;20181;-77
2021/06/01 08:21:37;;;;;;;3.10;2.80;;;;;;;22.97;46.05;101339.50;4992936;28;20321;-77
2021/06/01 08:24:03;;;;;;;3.05;2.60;;;;;;;22.53;43.69;101327.38;5010559;28;20232;-77
2021/06/01 08:26:32;;;;;;;4.15;2.83;;;;;;;22.37;44.62;101331.88;5011019;28;20240;-77
2021/06/01 08:28:57;;;;;;;2.90;2.55;;;;;;;22.29;44.65;101338.25;5026588;28;20185;-77
2021/06/01 08:31:26;;;;;;;2.67;2.45;;;;;;;22.59;43.54;101329.63;5010203;28;20224;-77
2021/06/01 08:33:51;;;;;;;2.70;2.50;;;;;;;22.44;44.41;101329.38;4994144;28;20710;-77
2021/06/01 08:36:17;;;;;;;3.20;2.60;;;;;;;22.96;44.32;101328.75;4994099;28;20331;-77
2021/06/01 08:38:46;;;;;;;4.10;2.88;;;;;;;23.07;42.86;101328.00;5010661;28;20189;-77
2021/06/01 08:41:16;;;;;;;3.58;2.60;;;;;;;23.33;43.24;101314.72;5010058;28;20228;-77
2021/06/01 08:43:47;;;;;;;3.15;2.58;;;;;;;23.91;42.51;101321.66;5009940;28;20715;-77
2021/06/01 08:46:12;;;;;;;2.95;2.30;;;;;;;23.97;41.51;101309.16;4993601;28;20319;-77
2021/06/01 08:48:38;;;;;;;2.75;2.55;;;;;;;24.23;39.86;101313.25;5027475;28;20173;-77
2021/06/01 08:51:06;;;;;;;4.85;2.60;;;;;;;24.36;40.98;101307.38;5010578;28;20221;-77
2021/06/01 08:53:37;;;;;;;3.30;2.80;;;;;;;24.34;39.98;101310.84;5009963;28;20185;-77
2021/06/01 08:56:09;;;;;;;3.20;2.90;;;;;;;24.26;41.45;101300.63;5010592;28;20236;-77
2021/06/01 08:58:40;;;;;;;2.85;2.58;;;;;;;23.69;39.72;101302.63;4995034;28;20268;-77
2021/06/01 09:01:06;;;;;;;2.90;2.60;;;;;;;23.25;41.47;101304.53;5011433;28;20231;-77
2021/06/01 09:03:34;;;;;;;3.17;2.60;;;;;;;24.09;41.40;101301.66;5009166;28;20204;-77
2021/06/01 09:06:30;;;;;;;2.88;2.67;;;;;;;24.71;39.73;101297.38;4977843;28;20227;-77
2021/06/01 09:09:20;;;;;;;8.15;3.10;;;;;;;24.54;38.67;101302.38;4989287;28;20209;-77
2021/06/01 09:22:36;;;;;;;4.43;2.50;;;;;;;24.33;39.02;101292.56;5021668;28;20232;-77
2021/06/01 09:25:11;;;;;;;3.00;2.75;;;;;;;24.77;39.69;101291.22;5025720;28;20195;-77
2021/06/01 09:27:58;;;;;;;4.30;2.72;;;;;;;24.36;39.57;101285.16;4978952;28;20281;-77
2021/06/01 09:30:45;;;;;;;3.47;2.50;;;;;;;24.22;40.97;101288.59;4993738;28;20295;-77
2021/06/01 09:33:12;;;;;;;4.22;2.70;;;;;;;24.74;40.54;101288.31;5010580;28;20260;-77
2021/06/01 09:35:42;;;;;;;2.95;2.60;;;;;;;25.38;37.96;101285.13;5009398;28;20371;-77
2021/06/01 09:38:13;;;;;;;3.85;2.80;;;;;;;25.81;38.14;101287.97;4977069;28;20216;-77
2021/06/01 09:40:41;;;;;;;3.53;2.40;;;;;;;25.85;37.33;101284.09;4978522;28;20319;-76
2021/06/01 09:43:13;;;;;;;3.58;2.70;;;;;;;25.36;37.91;101279.09;5008857;28;20299;-76
2021/06/01 09:45:42;;;;;;;3.80;2.60;;;;;;;25.30;37.61;101277.75;4961718;28;20220;-77
2021/06/01 09:48:08;;;;;;;3.95;2.80;;;;;;;24.32;39.14;101277.03;4961575;28;20259;-76
2021/06/01 09:50:55;;;;;;;2.90;2.60;;;;;;;24.63;39.07;101278.03;5025714;28;20248;-76
2021/06/01 09:53:28;;;;;;;3.42;2.70;;;;;;;25.51;38.19;101267.19;5008871;28;20189;-75
2021/06/01 09:55:56;;;;;;;3.40;2.80;;;;;;;24.93;38.99;101271.88;5009675;28;20238;-76
2021/06/01 09:58:25;;;;;;;3.45;3.15;;;;;;;24.24;41.31;101275.16;5026105;28;20191;-76
2021/06/01 10:00:51;;;;;;;3.60;3.00;;;;;;;24.76;39.30;101280.44;5011931;28;20229;-76
2021/06/01 10:03:21;;;;;;;5.03;2.80;;;;;;;24.82;38.82;101276.28;5010321;28;20365;-75
2021/06/01 10:05:54;;;;;;;4.28;2.72;;;;;;;25.11;39.51;101267.63;5026905;28;20247;-76
2021/06/01 10:08:26;;;;;;;3.47;2.70;;;;;;;25.60;38.88;101268.72;5010401;28;20184;-76
2021/06/01 10:10:56;;;;;;;3.20;2.85;;;;;;;25.73;38.46;101258.28;5009737;28;20878;-76
2021/06/01 10:13:22;;;;;;;4.10;3.00;;;;;;;25.30;37.79;101263.03;5008170;28;20173;-76
2021/06/01 10:15:49;;;;;;;3.17;2.88;;;;;;;25.38;38.13;101262.06;5009543;28;20276;-76
2021/06/01 10:18:19;;;;;;;3.72;2.90;;;;;;;25.90;38.65;101252.34;5009955;28;20223;-76
2021/06/01 10:20:45;;;;;;;3.83;3.13;;;;;;;26.18;38.07;101254.69;5027059;28;20440;-76
2021/06/01 10:23:11;;;;;;;4.97;3.13;;;;;;;25.99;36.82;101251.03;5016122;28;20216;-75
2021/06/01 10:25:37;;;;;;;3.97;2.80;;;;;;;26.08;37.21;101248.84;5016320;28;20220;-76
2021/06/01 10:28:04;;;;;;;4.00;3.08;;;;;;;26.61;36.94;101257.34;5033524;28;20224;-76
2021/06/01 10:30:34;;;;;;;2.95;2.53;;;;;;;26.39;37.12;101244.91;5032800;28;20728;-77
2021/06/01 10:33:04;;;;;;;3.35;2.88;;;;;;;26.46;37.61;101238.66;5032440;28;20267;-76
2021/06/01 10:35:36;;;;;;;3.83;2.95;;;;;;;26.13;37.09;101246.59;5032637;28;20299;-76
2021/06/01 10:44:17;;;;;;;3.17;2.65;;;;;;;26.11;38.41;101237.78;5033652;28;20242;-77
2021/06/01 10:52:21;;;;;;;3.85;2.50;;;;;;;25.60;37.91;101232.53;5031248;28;20227;-77
2021/06/01 10:54:48;;;;;;;3.45;2.88;;;;;;;25.68;38.87;101223.16;5032266;28;20184;-76
2021/06/01 10:57:17;;;;;;;3.67;3.30;;;;;;;25.51;38.08;101222.66;5032601;28;20230;-75
2021/06/01 11:02:25;;;;;;;2.97;2.78;;;;;;;24.93;37.92;101216.25;5032175;28;20231;-77
2021/06/01 11:05:14;;;;;;;3.28;2.63;;;;;;;24.93;38.71;101222.63;5032342;28;20317;-77
2021/06/01 11:07:55;;;;;;;4.07;2.55;;;;;;;25.10;37.52;101215.94;5046043;28;20231;-77
2021/06/01 11:10:40;;;;;;;2.80;2.60;;;;;;;25.42;37.27;101208.13;5014567;28;20191;-77
2021/06/01 11:13:12;;;;;;;4.47;4.07;;;;;;;25.29;37.30;101209.38;5010299;28;20177;-77
2021/06/01 11:15:41;;;;;;;4.30;3.85;;;;;;;25.58;35.26;101204.19;5002744;28;20221;-77
2021/06/01 11:18:14;;;;;;;3.42;2.50;;;;;;;26.34;33.86;101202.56;4993836;28;20210;-78
2021/06/01 11:21:04;;;;;;;3.50;2.70;;;;;;;26.35;33.63;101190.22;5003366;28;20227;-78
2021/06/01 11:23:51;;;;;;;3.15;2.53;;;;;;;26.26;34.27;101189.63;5012693;28;20213;-78
2021/06/01 11:32:47;;;;;;;3.30;2.60;;;;;;;25.90;33.59;101185.50;5012701;28;20185;-78
2021/06/01 11:34:36;;;;;;;2.50;2.17;;;;;;;25.81;36.06;101193.28;4994462;28;20227;-77
2021/06/01 11:37:07;;;;;;;2.63;2.42;;;;;;;25.98;34.43;101182.56;4994605;28;20229;-77
2021/06/01 11:39:48;;;;;;;2.42;2.22;;;;;;;26.53;33.69;101178.31;4964264;28;20196;-77
2021/06/01 11:45:06;;;;;;;2.90;2.38;;;;;;;26.92;31.91;101175.19;5011698;28;20189;-78
2021/06/01 11:47:43;;;;;;;2.30;2.03;;;;;;;27.18;31.33;101175.31;5026892;28;20323;-77
2021/06/01 11:52:56;;;;;;;3.67;2.60;;;;;;;26.77;32.64;101172.44;4997498;28;20547;-77
2021/06/01 11:55:24;;;;;;;2.55;2.35;;;;;;;27.40;32.08;101158.59;4980500;28;20593;-77
2021/06/01 12:04:01;;;;;;;2.45;2.25;;;;;;;28.36;31.02;101142.63;4996487;28;20213;-77
2021/06/01 12:12:08;;;;;;;3.65;2.78;;;;;;;27.30;33.66;101133.25;5023351;28;20238;-77
2021/06/01 12:17:49;;;;;;;3.47;2.45;;;;;;;27.16;34.70;101128.25;4997266;28;20227;-77
2021/06/01 12:20:17;;;;;;;3.65;2.45;;;;;;;27.52;34.53;101117.31;5000219;28;20184;-77
2021/06/01 12:22:45;;;;;;;4.65;3.08;;;;;;;27.41;34.30;101120.31;5031324;28;20203;-76
2021/06/01 12:25:13;;;;;;;3.42;3.13;;;;;;;26.94;34.33;101122.63;5013257;28;20215;-77